CFG6CN EDDF-LHBP
Flight info
| Callsign | CFG6CN |
|---|---|
| Flight time | 1h 13m |
| Altitude | 35000 |
| Route | SULUS7S/18 SULUS Z650 VEMUT DCT PEPIK DCT NIT M748 ARFOX |
| Aircraft | A319/M-SDE2FGHIJ1RWY/HB1 |
Departure
| Time | 2026-05-06 10:08 |
|---|---|
| Airport | Frankfurt Main Airport (EDDF) |
Arrival
| Time | 2026-05-06 11:22 |
|---|---|
| Airport | Budapest Liszt Ferenc International Airport (LHBP) |
| Time | Latitude | Longitude | Altitude | Speed | Heading |
|---|---|---|---|---|---|
| 2026-05-06 09:28 | 50.04079 | 8.55748 | 349 ft | 0 kts | 159° |
| 2026-05-06 10:02 | 50.04077 | 8.55749 | 350 ft | 1 kts | 159° |
| 2026-05-06 10:03 | 50.04048 | 8.55766 | 356 ft | 8 kts | 160° |
| 2026-05-06 10:03 | 50.03996 | 8.55721 | 360 ft | 12 kts | 242° |
| 2026-05-06 10:03 | 50.03956 | 8.55564 | 351 ft | 19 kts | 249° |
| 2026-05-06 10:03 | 50.03909 | 8.55371 | 350 ft | 19 kts | 249° |
| 2026-05-06 10:04 | 50.03863 | 8.55178 | 357 ft | 19 kts | 249° |
| 2026-05-06 10:04 | 50.03816 | 8.54984 | 355 ft | 19 kts | 249° |
| 2026-05-06 10:04 | 50.03769 | 8.54789 | 351 ft | 19 kts | 249° |
| 2026-05-06 10:04 | 50.03723 | 8.54593 | 357 ft | 19 kts | 250° |
| 2026-05-06 10:05 | 50.03677 | 8.54396 | 358 ft | 19 kts | 250° |
| 2026-05-06 10:05 | 50.03631 | 8.54199 | 354 ft | 19 kts | 250° |
| 2026-05-06 10:05 | 50.03584 | 8.54003 | 358 ft | 19 kts | 250° |
| 2026-05-06 10:05 | 50.03537 | 8.53805 | 352 ft | 20 kts | 249° |
| 2026-05-06 10:06 | 50.03488 | 8.53608 | 356 ft | 20 kts | 249° |
| 2026-05-06 10:06 | 50.03441 | 8.53409 | 355 ft | 20 kts | 250° |
| 2026-05-06 10:06 | 50.03394 | 8.53211 | 352 ft | 20 kts | 250° |
| 2026-05-06 10:06 | 50.03347 | 8.53011 | 358 ft | 20 kts | 250° |
| 2026-05-06 10:07 | 50.03299 | 8.52814 | 355 ft | 16 kts | 249° |
| 2026-05-06 10:07 | 50.03253 | 8.52656 | 361 ft | 16 kts | 229° |
| 2026-05-06 10:07 | 50.03152 | 8.52595 | 354 ft | 17 kts | 181° |
| 2026-05-06 10:07 | 50.02950 | 8.52596 | 354 ft | 60 kts | 180° |
| 2026-05-06 10:08 | 50.02279 | 8.52603 | 350 ft | 128 kts | 180° |
| 2026-05-06 10:08 | 50.01220 | 8.52607 | 457 ft | 166 kts | 181° |
| 2026-05-06 10:08 | 50.00078 | 8.52648 | 1146 ft | 165 kts | 180° |
| 2026-05-06 10:08 | 49.98903 | 8.52632 | 1760 ft | 176 kts | 183° |
| 2026-05-06 10:09 | 49.97600 | 8.52656 | 2118 ft | 201 kts | 174° |
| 2026-05-06 10:09 | 49.96307 | 8.53749 | 2634 ft | 228 kts | 133° |
| 2026-05-06 10:09 | 49.95449 | 8.55884 | 3585 ft | 238 kts | 123° |
| 2026-05-06 10:09 | 49.94634 | 8.58138 | 4592 ft | 241 kts | 122° |
| 2026-05-06 10:10 | 49.94046 | 8.60604 | 5447 ft | 252 kts | 101° |
| 2026-05-06 10:10 | 49.93900 | 8.63453 | 5949 ft | 277 kts | 94° |
| 2026-05-06 10:10 | 49.93711 | 8.66479 | 6730 ft | 284 kts | 104° |
| 2026-05-06 10:10 | 49.93004 | 8.69341 | 7625 ft | 286 kts | 123° |
| 2026-05-06 10:11 | 49.91752 | 8.71721 | 8556 ft | 285 kts | 142° |
| 2026-05-06 10:11 | 49.90153 | 8.73546 | 9533 ft | 286 kts | 149° |
| 2026-05-06 10:11 | 49.88637 | 8.75575 | 10398 ft | 293 kts | 136° |
| 2026-05-06 10:11 | 49.87400 | 8.78234 | 10825 ft | 318 kts | 123° |
| 2026-05-06 10:12 | 49.86286 | 8.81312 | 11327 ft | 333 kts | 122° |
| 2026-05-06 10:12 | 49.85153 | 8.84472 | 12070 ft | 338 kts | 122° |
| 2026-05-06 10:12 | 49.84007 | 8.87672 | 12873 ft | 341 kts | 122° |
| 2026-05-06 10:12 | 49.82846 | 8.90902 | 13668 ft | 345 kts | 122° |
| 2026-05-06 10:13 | 49.81684 | 8.94122 | 14354 ft | 348 kts | 122° |
| 2026-05-06 10:13 | 49.80490 | 8.97412 | 15081 ft | 352 kts | 122° |
| 2026-05-06 10:13 | 49.79281 | 9.00724 | 15793 ft | 355 kts | 122° |
| 2026-05-06 10:13 | 49.78062 | 9.04056 | 16520 ft | 358 kts | 122° |
| 2026-05-06 10:14 | 49.76844 | 9.07430 | 17207 ft | 362 kts | 120° |
| 2026-05-06 10:14 | 49.75905 | 9.11085 | 17880 ft | 369 kts | 109° |
| 2026-05-06 10:14 | 49.75284 | 9.14964 | 18491 ft | 374 kts | 106° |
| 2026-05-06 10:14 | 49.74665 | 9.18885 | 19096 ft | 377 kts | 107° |
| 2026-05-06 10:15 | 49.74030 | 9.22831 | 19698 ft | 381 kts | 107° |
| 2026-05-06 10:15 | 49.73379 | 9.26825 | 20262 ft | 385 kts | 107° |
| 2026-05-06 10:15 | 49.72723 | 9.30851 | 20831 ft | 389 kts | 107° |
| 2026-05-06 10:15 | 49.72060 | 9.34920 | 21409 ft | 393 kts | 107° |
| 2026-05-06 10:16 | 49.71389 | 9.39030 | 21974 ft | 397 kts | 107° |
| 2026-05-06 10:16 | 49.70708 | 9.43181 | 22531 ft | 401 kts | 107° |
| 2026-05-06 10:16 | 49.70018 | 9.47374 | 23086 ft | 405 kts | 107° |
| 2026-05-06 10:16 | 49.69319 | 9.51608 | 23566 ft | 409 kts | 107° |
| 2026-05-06 10:17 | 49.68615 | 9.55882 | 24022 ft | 412 kts | 108° |
| 2026-05-06 10:17 | 49.67908 | 9.60190 | 24498 ft | 415 kts | 107° |
| 2026-05-06 10:17 | 49.67453 | 9.64623 | 24967 ft | 422 kts | 97° |
| 2026-05-06 10:17 | 49.67494 | 9.69187 | 25445 ft | 429 kts | 87° |
| 2026-05-06 10:18 | 49.68050 | 9.73749 | 25894 ft | 435 kts | 78° |
| 2026-05-06 10:18 | 49.68852 | 9.78273 | 26357 ft | 438 kts | 78° |
| 2026-05-06 10:18 | 49.69661 | 9.82824 | 26794 ft | 441 kts | 78° |
| 2026-05-06 10:18 | 49.70477 | 9.87416 | 27219 ft | 444 kts | 78° |
| 2026-05-06 10:19 | 49.71376 | 9.92015 | 27646 ft | 451 kts | 72° |
| 2026-05-06 10:19 | 49.72700 | 9.96431 | 28071 ft | 457 kts | 63° |
| 2026-05-06 10:19 | 49.74461 | 10.00567 | 28428 ft | 464 kts | 56° |
| 2026-05-06 10:19 | 49.76355 | 10.04632 | 28816 ft | 468 kts | 56° |
| 2026-05-06 10:20 | 49.78268 | 10.08752 | 29163 ft | 472 kts | 56° |
| 2026-05-06 10:20 | 49.80189 | 10.12902 | 29518 ft | 476 kts | 57° |
| 2026-05-06 10:20 | 49.82121 | 10.17091 | 29879 ft | 480 kts | 57° |
| 2026-05-06 10:20 | 49.84065 | 10.21322 | 30199 ft | 483 kts | 57° |
| 2026-05-06 10:21 | 49.86018 | 10.25580 | 30522 ft | 485 kts | 57° |
| 2026-05-06 10:21 | 49.87974 | 10.29853 | 30839 ft | 488 kts | 57° |
| 2026-05-06 10:21 | 49.89944 | 10.34156 | 31151 ft | 490 kts | 57° |
| 2026-05-06 10:21 | 49.91893 | 10.38420 | 31461 ft | 492 kts | 57° |
| 2026-05-06 10:22 | 49.93867 | 10.42752 | 31910 ft | 491 kts | 57° |
| 2026-05-06 10:22 | 49.95838 | 10.47080 | 32354 ft | 490 kts | 57° |
| 2026-05-06 10:22 | 49.97803 | 10.51392 | 32760 ft | 490 kts | 57° |
| 2026-05-06 10:22 | 49.99767 | 10.55714 | 33131 ft | 490 kts | 57° |
| 2026-05-06 10:23 | 50.01729 | 10.60050 | 33500 ft | 490 kts | 57° |
| 2026-05-06 10:23 | 50.03468 | 10.64584 | 33880 ft | 487 kts | 68° |
| 2026-05-06 10:23 | 50.04659 | 10.69479 | 34215 ft | 481 kts | 79° |
| 2026-05-06 10:23 | 50.05298 | 10.74556 | 34563 ft | 474 kts | 89° |
| 2026-05-06 10:24 | 50.05402 | 10.79653 | 34755 ft | 468 kts | 98° |
| 2026-05-06 10:24 | 50.04984 | 10.84587 | 34803 ft | 452 kts | 109° |
| 2026-05-06 10:24 | 50.03137 | 10.93757 | 34801 ft | 442 kts | 115° |
| 2026-05-06 10:25 | 50.01194 | 11.02817 | 34795 ft | 442 kts | 115° |
| 2026-05-06 10:25 | 49.99579 | 11.10379 | 34802 ft | 444 kts | 114° |
| 2026-05-06 10:26 | 49.97637 | 11.19476 | 34802 ft | 444 kts | 114° |
| 2026-05-06 10:26 | 49.95696 | 11.28575 | 34803 ft | 444 kts | 114° |
| 2026-05-06 10:27 | 49.93763 | 11.37679 | 34802 ft | 444 kts | 114° |
| 2026-05-06 10:27 | 49.91902 | 11.46827 | 34771 ft | 446 kts | 112° |
| 2026-05-06 10:28 | 49.90236 | 11.56101 | 34777 ft | 447 kts | 111° |
| 2026-05-06 10:28 | 49.88585 | 11.65406 | 34782 ft | 448 kts | 111° |
| 2026-05-06 10:29 | 49.87523 | 11.75011 | 34785 ft | 454 kts | 103° |
| 2026-05-06 10:29 | 49.86658 | 11.84723 | 34789 ft | 455 kts | 103° |
| 2026-05-06 10:30 | 49.85790 | 11.94428 | 34771 ft | 456 kts | 103° |
| 2026-05-06 10:30 | 49.84916 | 12.04162 | 34775 ft | 456 kts | 103° |
| 2026-05-06 10:31 | 49.84035 | 12.13916 | 34784 ft | 457 kts | 103° |
| 2026-05-06 10:31 | 49.83144 | 12.23654 | 34783 ft | 457 kts | 103° |
| 2026-05-06 10:32 | 49.82244 | 12.33393 | 34767 ft | 457 kts | 103° |
| 2026-05-06 10:32 | 49.81356 | 12.43097 | 34776 ft | 458 kts | 103° |
| 2026-05-06 10:33 | 49.79809 | 12.52556 | 34781 ft | 452 kts | 113° |
| 2026-05-06 10:33 | 49.77933 | 12.61910 | 34796 ft | 452 kts | 113° |
| 2026-05-06 10:34 | 49.76081 | 12.71139 | 34788 ft | 453 kts | 113° |
| 2026-05-06 10:34 | 49.74215 | 12.80437 | 34776 ft | 453 kts | 113° |
| 2026-05-06 10:35 | 49.72336 | 12.89745 | 34778 ft | 454 kts | 113° |
| 2026-05-06 10:35 | 49.70439 | 12.99061 | 34786 ft | 455 kts | 113° |
| 2026-05-06 10:36 | 49.68536 | 13.08377 | 34793 ft | 455 kts | 113° |
| 2026-05-06 10:36 | 49.66626 | 13.17683 | 34814 ft | 455 kts | 114° |
| 2026-05-06 10:37 | 49.64708 | 13.26976 | 34824 ft | 454 kts | 114° |
| 2026-05-06 10:37 | 49.62787 | 13.36261 | 34831 ft | 454 kts | 114° |
| 2026-05-06 10:38 | 49.60852 | 13.45541 | 34832 ft | 454 kts | 114° |
| 2026-05-06 10:38 | 49.58916 | 13.54801 | 34828 ft | 454 kts | 114° |
| 2026-05-06 10:39 | 49.56967 | 13.64056 | 34807 ft | 453 kts | 114° |
| 2026-05-06 10:39 | 49.55018 | 13.73277 | 34822 ft | 452 kts | 114° |
| 2026-05-06 10:40 | 49.53072 | 13.82475 | 34825 ft | 451 kts | 114° |
| 2026-05-06 10:40 | 49.51122 | 13.91657 | 34830 ft | 451 kts | 114° |
| 2026-05-06 10:41 | 49.49161 | 14.00827 | 34799 ft | 451 kts | 114° |
| 2026-05-06 10:41 | 49.47197 | 14.09962 | 34815 ft | 450 kts | 114° |
| 2026-05-06 10:42 | 49.45227 | 14.19091 | 34815 ft | 449 kts | 114° |
| 2026-05-06 10:42 | 49.43254 | 14.28204 | 34819 ft | 450 kts | 114° |
| 2026-05-06 10:43 | 49.41277 | 14.37306 | 34821 ft | 449 kts | 115° |
| 2026-05-06 10:44 | 49.38284 | 14.50921 | 34803 ft | 449 kts | 115° |
| 2026-05-06 10:44 | 49.36280 | 14.60003 | 34810 ft | 449 kts | 115° |
| 2026-05-06 10:45 | 49.34273 | 14.69077 | 34815 ft | 450 kts | 115° |
| 2026-05-06 10:45 | 49.32264 | 14.78155 | 34821 ft | 450 kts | 115° |
| 2026-05-06 10:46 | 49.30242 | 14.87220 | 34803 ft | 449 kts | 115° |
| 2026-05-06 10:46 | 49.28211 | 14.96261 | 34814 ft | 449 kts | 115° |
| 2026-05-06 10:47 | 49.26175 | 15.05306 | 34822 ft | 449 kts | 115° |
| 2026-05-06 10:47 | 49.24143 | 15.14333 | 34831 ft | 449 kts | 115° |
| 2026-05-06 10:48 | 49.22099 | 15.23352 | 34830 ft | 449 kts | 115° |
| 2026-05-06 10:48 | 49.20048 | 15.32357 | 34821 ft | 448 kts | 115° |
| 2026-05-06 10:49 | 49.17999 | 15.41345 | 34834 ft | 447 kts | 115° |
| 2026-05-06 10:49 | 49.15933 | 15.50306 | 34836 ft | 447 kts | 115° |
| 2026-05-06 10:50 | 49.13864 | 15.59250 | 34841 ft | 447 kts | 115° |
| 2026-05-06 10:50 | 49.11792 | 15.68189 | 34811 ft | 446 kts | 115° |
| 2026-05-06 10:51 | 49.09719 | 15.77112 | 34818 ft | 446 kts | 115° |
| 2026-05-06 10:51 | 49.07632 | 15.86023 | 34824 ft | 446 kts | 115° |
| 2026-05-06 10:52 | 49.05541 | 15.94915 | 34861 ft | 446 kts | 115° |
| 2026-05-06 10:52 | 49.03449 | 16.03807 | 34863 ft | 445 kts | 115° |
| 2026-05-06 10:53 | 49.01355 | 16.12688 | 34843 ft | 445 kts | 115° |
| 2026-05-06 10:53 | 48.99246 | 16.21559 | 34845 ft | 446 kts | 115° |
| 2026-05-06 10:54 | 48.97127 | 16.30427 | 34846 ft | 446 kts | 115° |
| 2026-05-06 10:54 | 48.95010 | 16.39292 | 34846 ft | 446 kts | 115° |
| 2026-05-06 10:55 | 48.92883 | 16.48144 | 34823 ft | 445 kts | 115° |
| 2026-05-06 10:55 | 48.90745 | 16.56995 | 34830 ft | 446 kts | 115° |
| 2026-05-06 10:56 | 48.88597 | 16.65846 | 34835 ft | 446 kts | 115° |
| 2026-05-06 10:56 | 48.86449 | 16.74687 | 34845 ft | 446 kts | 115° |
| 2026-05-06 10:57 | 48.84293 | 16.83542 | 34851 ft | 446 kts | 115° |
| 2026-05-06 10:57 | 48.82120 | 16.92366 | 34839 ft | 446 kts | 115° |
| 2026-05-06 10:57 | 48.81027 | 16.96780 | 34691 ft | 447 kts | 115° |
| 2026-05-06 10:58 | 48.79951 | 17.01129 | 34458 ft | 447 kts | 114° |
| 2026-05-06 10:58 | 48.78819 | 17.05557 | 34131 ft | 441 kts | 118° |
| 2026-05-06 10:58 | 48.77377 | 17.09618 | 33608 ft | 434 kts | 128° |
| 2026-05-06 10:58 | 48.75620 | 17.13271 | 33138 ft | 426 kts | 132° |
| 2026-05-06 10:59 | 48.73833 | 17.16825 | 32685 ft | 422 kts | 132° |
| 2026-05-06 10:59 | 48.72068 | 17.20355 | 32218 ft | 419 kts | 132° |
| 2026-05-06 10:59 | 48.70321 | 17.23856 | 31767 ft | 415 kts | 132° |
| 2026-05-06 10:59 | 48.68610 | 17.27280 | 31327 ft | 412 kts | 132° |
| 2026-05-06 11:00 | 48.66861 | 17.30771 | 30887 ft | 409 kts | 132° |
| 2026-05-06 11:00 | 48.65148 | 17.34183 | 30447 ft | 406 kts | 132° |
| 2026-05-06 11:00 | 48.63447 | 17.37567 | 30020 ft | 403 kts | 133° |
| 2026-05-06 11:00 | 48.61753 | 17.40934 | 29559 ft | 401 kts | 133° |
| 2026-05-06 11:01 | 48.60075 | 17.44266 | 29145 ft | 397 kts | 133° |
| 2026-05-06 11:01 | 48.58408 | 17.47568 | 28744 ft | 394 kts | 133° |
| 2026-05-06 11:01 | 48.56774 | 17.50800 | 28350 ft | 390 kts | 133° |
| 2026-05-06 11:01 | 48.55113 | 17.54088 | 27942 ft | 387 kts | 133° |
| 2026-05-06 11:02 | 48.53485 | 17.57301 | 27534 ft | 384 kts | 132° |
| 2026-05-06 11:02 | 48.51893 | 17.60436 | 27160 ft | 379 kts | 132° |
| 2026-05-06 11:02 | 48.50274 | 17.63620 | 26751 ft | 376 kts | 132° |
| 2026-05-06 11:02 | 48.48706 | 17.66696 | 26351 ft | 373 kts | 132° |
| 2026-05-06 11:03 | 48.47134 | 17.69782 | 25951 ft | 370 kts | 131° |
| 2026-05-06 11:03 | 48.45577 | 17.72843 | 25538 ft | 367 kts | 131° |
| 2026-05-06 11:03 | 48.44027 | 17.75884 | 25125 ft | 365 kts | 131° |
| 2026-05-06 11:03 | 48.42487 | 17.78905 | 24697 ft | 363 kts | 131° |
| 2026-05-06 11:04 | 48.40954 | 17.81904 | 24264 ft | 361 kts | 131° |
| 2026-05-06 11:04 | 48.39426 | 17.84890 | 23838 ft | 359 kts | 131° |
| 2026-05-06 11:04 | 48.37904 | 17.87863 | 23391 ft | 358 kts | 131° |
| 2026-05-06 11:04 | 48.36389 | 17.90821 | 22897 ft | 355 kts | 131° |
| 2026-05-06 11:05 | 48.34887 | 17.93747 | 22471 ft | 352 kts | 131° |
| 2026-05-06 11:05 | 48.33398 | 17.96640 | 22067 ft | 349 kts | 131° |
| 2026-05-06 11:05 | 48.31915 | 17.99511 | 21653 ft | 346 kts | 131° |
| 2026-05-06 11:05 | 48.30443 | 18.02357 | 21247 ft | 344 kts | 131° |
| 2026-05-06 11:06 | 48.28977 | 18.05186 | 20839 ft | 342 kts | 133° |
| 2026-05-06 11:06 | 48.27459 | 18.07916 | 20426 ft | 339 kts | 135° |
| 2026-05-06 11:06 | 48.26424 | 18.09675 | 20152 ft | 338 kts | 136° |
| 2026-05-06 11:06 | 48.24846 | 18.12280 | 19748 ft | 337 kts | 136° |
| 2026-05-06 11:07 | 48.23262 | 18.14858 | 19338 ft | 335 kts | 136° |
| 2026-05-06 11:07 | 48.21685 | 18.17424 | 18936 ft | 335 kts | 136° |
| 2026-05-06 11:07 | 48.20117 | 18.19991 | 18544 ft | 333 kts | 136° |
| 2026-05-06 11:07 | 48.18564 | 18.22549 | 18146 ft | 331 kts | 136° |
| 2026-05-06 11:08 | 48.17015 | 18.25110 | 17693 ft | 330 kts | 136° |
| 2026-05-06 11:08 | 48.15483 | 18.27654 | 17307 ft | 328 kts | 136° |
| 2026-05-06 11:08 | 48.13959 | 18.30186 | 16912 ft | 326 kts | 136° |
| 2026-05-06 11:08 | 48.12442 | 18.32703 | 16533 ft | 325 kts | 136° |
| 2026-05-06 11:09 | 48.10928 | 18.35209 | 16157 ft | 324 kts | 136° |
| 2026-05-06 11:09 | 48.09418 | 18.37700 | 15787 ft | 323 kts | 136° |
| 2026-05-06 11:09 | 48.07910 | 18.40185 | 15418 ft | 322 kts | 136° |
| 2026-05-06 11:09 | 48.06414 | 18.42658 | 15049 ft | 321 kts | 136° |
| 2026-05-06 11:10 | 48.04915 | 18.45138 | 14685 ft | 321 kts | 136° |
| 2026-05-06 11:10 | 48.03417 | 18.47607 | 14318 ft | 321 kts | 136° |
| 2026-05-06 11:10 | 48.01917 | 18.50074 | 13951 ft | 321 kts | 136° |
| 2026-05-06 11:10 | 48.00415 | 18.52540 | 13562 ft | 321 kts | 136° |
| 2026-05-06 11:11 | 47.98913 | 18.55008 | 13176 ft | 320 kts | 136° |
| 2026-05-06 11:11 | 47.97314 | 18.57274 | 12794 ft | 315 kts | 147° |
| 2026-05-06 11:11 | 47.95448 | 18.58918 | 12432 ft | 308 kts | 158° |
| 2026-05-06 11:11 | 47.93532 | 18.60339 | 12067 ft | 307 kts | 158° |
| 2026-05-06 11:12 | 47.91623 | 18.61762 | 11691 ft | 306 kts | 158° |
| 2026-05-06 11:12 | 47.89723 | 18.63180 | 11324 ft | 305 kts | 157° |
| 2026-05-06 11:12 | 47.87837 | 18.64590 | 10962 ft | 302 kts | 157° |
| 2026-05-06 11:12 | 47.85956 | 18.65995 | 10588 ft | 301 kts | 157° |
| 2026-05-06 11:13 | 47.84083 | 18.67391 | 10200 ft | 301 kts | 157° |
| 2026-05-06 11:13 | 47.82216 | 18.68784 | 9828 ft | 299 kts | 157° |
| 2026-05-06 11:13 | 47.80386 | 18.70143 | 9600 ft | 291 kts | 157° |
| 2026-05-06 11:13 | 47.78577 | 18.71481 | 9193 ft | 290 kts | 157° |
| 2026-05-06 11:14 | 47.76774 | 18.72813 | 8841 ft | 287 kts | 157° |
| 2026-05-06 11:14 | 47.74987 | 18.74133 | 8439 ft | 286 kts | 158° |
| 2026-05-06 11:14 | 47.73300 | 18.75786 | 8030 ft | 290 kts | 142° |
| 2026-05-06 11:14 | 47.71923 | 18.77935 | 7588 ft | 294 kts | 136° |
| 2026-05-06 11:15 | 47.70579 | 18.80170 | 7361 ft | 287 kts | 136° |
| 2026-05-06 11:15 | 47.69265 | 18.82367 | 7229 ft | 276 kts | 136° |
| 2026-05-06 11:15 | 47.68013 | 18.84465 | 7089 ft | 267 kts | 137° |
| 2026-05-06 11:15 | 47.66789 | 18.86502 | 6825 ft | 263 kts | 137° |
| 2026-05-06 11:16 | 47.65539 | 18.88548 | 6196 ft | 273 kts | 138° |
| 2026-05-06 11:16 | 47.64224 | 18.90673 | 5479 ft | 285 kts | 137° |
| 2026-05-06 11:16 | 47.62918 | 18.92795 | 5184 ft | 269 kts | 137° |
| 2026-05-06 11:16 | 47.61715 | 18.94763 | 5049 ft | 246 kts | 137° |
| 2026-05-06 11:17 | 47.60615 | 18.96566 | 4941 ft | 227 kts | 137° |
| 2026-05-06 11:17 | 47.59564 | 18.98276 | 4708 ft | 225 kts | 138° |
| 2026-05-06 11:17 | 47.58495 | 18.99995 | 4368 ft | 227 kts | 139° |
| 2026-05-06 11:17 | 47.57415 | 19.01710 | 4081 ft | 227 kts | 138° |
| 2026-05-06 11:18 | 47.56346 | 19.03424 | 3774 ft | 226 kts | 138° |
| 2026-05-06 11:18 | 47.55285 | 19.05146 | 3475 ft | 227 kts | 139° |
| 2026-05-06 11:18 | 47.54227 | 19.06870 | 3192 ft | 226 kts | 137° |
| 2026-05-06 11:18 | 47.53173 | 19.08590 | 2888 ft | 224 kts | 138° |
| 2026-05-06 11:19 | 47.52141 | 19.10272 | 2590 ft | 217 kts | 137° |
| 2026-05-06 11:19 | 47.51136 | 19.11907 | 2307 ft | 213 kts | 137° |
| 2026-05-06 11:19 | 47.50163 | 19.13488 | 2016 ft | 202 kts | 138° |
| 2026-05-06 11:19 | 47.49261 | 19.14960 | 1780 ft | 185 kts | 139° |
| 2026-05-06 11:20 | 47.48418 | 19.16327 | 1535 ft | 174 kts | 139° |
| 2026-05-06 11:20 | 47.47662 | 19.17560 | 1307 ft | 152 kts | 140° |
| 2026-05-06 11:20 | 47.46971 | 19.18669 | 1057 ft | 142 kts | 141° |
| 2026-05-06 11:20 | 47.46316 | 19.19736 | 875 ft | 138 kts | 142° |
| 2026-05-06 11:21 | 47.45683 | 19.20783 | 733 ft | 135 kts | 142° |
| 2026-05-06 11:21 | 47.45054 | 19.21788 | 554 ft | 132 kts | 139° |
| 2026-05-06 11:21 | 47.44452 | 19.22748 | 451 ft | 116 kts | 135° |
| 2026-05-06 11:21 | 47.43996 | 19.23488 | 455 ft | 74 kts | 132° |
| 2026-05-06 11:22 | 47.43759 | 19.23913 | 453 ft | 29 kts | 109° |
| 2026-05-06 11:22 | 47.43685 | 19.24174 | 455 ft | 26 kts | 105° |
| 2026-05-06 11:22 | 47.43635 | 19.24429 | 457 ft | 26 kts | 114° |
| 2026-05-06 11:22 | 47.43534 | 19.24643 | 456 ft | 26 kts | 133° |
| 2026-05-06 11:23 | 47.43413 | 19.24837 | 457 ft | 26 kts | 132° |
| 2026-05-06 11:23 | 47.43331 | 19.24971 | 457 ft | 17 kts | 133° |
| 2026-05-06 11:23 | 47.43248 | 19.25106 | 457 ft | 18 kts | 127° |
| 2026-05-06 11:23 | 47.43265 | 19.25275 | 457 ft | 18 kts | 46° |
| 2026-05-06 11:24 | 47.43337 | 19.25378 | 456 ft | 13 kts | 51° |
| 2026-05-06 11:24 | 47.43310 | 19.25486 | 457 ft | 12 kts | 134° |
| 2026-05-06 11:24 | 47.43249 | 19.25583 | 457 ft | 13 kts | 133° |
| 2026-05-06 11:24 | 47.43190 | 19.25679 | 457 ft | 9 kts | 132° |
| 2026-05-06 11:25 | 47.43145 | 19.25751 | 457 ft | 10 kts | 132° |
| 2026-05-06 11:25 | 47.43098 | 19.25828 | 456 ft | 8 kts | 133° |
| 2026-05-06 11:25 | 47.43101 | 19.25870 | 456 ft | 5 kts | 57° |
| 2026-05-06 11:25 | 47.43128 | 19.25906 | 455 ft | 6 kts | 41° |
| 2026-05-06 11:26 | 47.43144 | 19.25926 | 456 ft | 0 kts | 42° |